Time;durP1;ratioP1;P1;durP2;ratioP2;P2;SDS_P1;SDS_P2;PMS_P1;PMS_P2;Temp;Humidity;BMP_temperature;BMP_pressure;BME280_temperature;BME280_humidity;BME280_pressure;Samples;Min_cycle;Max_cycle;Signal;HPM_P1;HPM_P2
2021/11/13 00:02:08;;;;;;;4.40;1.25;;;;;;;;;;5094927;28;20294;-80
2021/11/13 00:04:34;;;;;;;0.87;0.87;;;;;;;;;;5075000;28;20037;-80
2021/11/13 00:07:00;;;;;;;0.87;0.87;;;;;;;;;;5076798;28;20295;-80
2021/11/13 00:09:26;;;;;;;0.98;0.98;;;;;;;;;;5086485;28;20059;-80
2021/11/13 00:11:52;;;;;;;1.40;1.02;;;;;;;;;;5092924;28;20485;-80
2021/11/13 00:14:20;;;;;;;5.50;1.50;;;;;;;;;;5082999;28;20050;-80
2021/11/13 00:16:46;;;;;;;1.10;1.00;;;;;;;;;;5085508;28;20027;-80
2021/11/13 00:19:12;;;;;;;1.48;1.40;;;;;;;;;;5080024;28;20034;-80
2021/11/13 00:21:38;;;;;;;1.47;1.37;;;;;;;;;;5082699;28;20040;-80
2021/11/13 00:24:05;;;;;;;1.63;1.53;;;;;;;;;;5082675;28;20028;-80
2021/11/13 00:26:31;;;;;;;10.13;4.55;;;;;;;;;;5083294;28;20028;-79
2021/11/13 00:28:57;;;;;;;1.27;1.23;;;;;;;;;;5083440;28;20056;-80
2021/11/13 00:31:23;;;;;;;6.63;2.40;;;;;;;;;;5097237;28;20097;-80
2021/11/13 00:33:49;;;;;;;1.00;1.00;;;;;;;;;;5082362;28;20028;-81
2021/11/13 00:36:15;;;;;;;1.05;1.05;;;;;;;;;;5081632;28;20024;-81
2021/11/13 00:38:41;;;;;;;3.07;2.20;;;;;;;;;;5083902;28;20032;-81
2021/11/13 00:41:08;;;;;;;3.05;2.78;;;;;;;;;;5084106;28;20075;-80
2021/11/13 00:43:34;;;;;;;4.10;1.33;;;;;;;;;;5080079;28;20392;-81
2021/11/13 00:46:00;;;;;;;2.03;1.83;;;;;;;;;;5079908;28;20032;-80
2021/11/13 00:48:26;;;;;;;5.13;1.13;;;;;;;;;;5080367;28;20025;-80
2021/11/13 00:50:52;;;;;;;1.10;1.08;;;;;;;;;;5083093;28;20028;-80
2021/11/13 00:53:19;;;;;;;3.90;1.70;;;;;;;;;;5085622;28;20758;-80
2021/11/13 00:55:45;;;;;;;1.67;1.58;;;;;;;;;;5079023;28;20286;-81
2021/11/13 00:58:11;;;;;;;2.70;1.93;;;;;;;;;;5097007;28;20063;-82
2021/11/13 01:00:37;;;;;;;1.77;1.65;;;;;;;;;;5082115;28;20359;-82
2021/11/13 01:03:03;;;;;;;1.07;0.87;;;;;;;;;;5082566;28;20044;-82
2021/11/13 01:05:29;;;;;;;2.17;1.93;;;;;;;;;;5078144;28;20399;-80
2021/11/13 01:07:56;;;;;;;1.50;1.02;;;;;;;;;;5095183;28;20031;-82
2021/11/13 01:10:22;;;;;;;1.08;1.02;;;;;;;;;;5083406;28;20024;-80
2021/11/13 01:12:49;;;;;;;0.60;0.60;;;;;;;;;;5083902;28;20042;-80
2021/11/13 01:15:16;;;;;;;1.67;1.58;;;;;;;;;;5096809;28;20499;-82
2021/11/13 01:17:42;;;;;;;0.25;0.25;;;;;;;;;;5084275;28;20054;-82
2021/11/13 01:20:10;;;;;;;2.20;1.70;;;;;;;;;;5082184;28;20495;-80
2021/11/13 01:22:36;;;;;;;1.27;1.20;;;;;;;;;;5079406;28;20052;-80
2021/11/13 01:25:03;;;;;;;1.90;0.98;;;;;;;;;;5078921;28;20562;-78
2021/11/13 01:27:29;;;;;;;1.67;1.58;;;;;;;;;;5081443;28;20553;-80
2021/11/13 01:29:55;;;;;;;1.13;1.00;;;;;;;;;;5079517;28;20047;-80
2021/11/13 01:32:21;;;;;;;0.60;0.60;;;;;;;;;;5093524;28;20032;-79
2021/11/13 01:34:47;;;;;;;0.37;0.37;;;;;;;;;;5078975;28;20042;-79
2021/11/13 01:37:13;;;;;;;1.20;0.90;;;;;;;;;;5076055;28;20033;-79
2021/11/13 01:39:39;;;;;;;1.17;0.80;;;;;;;;;;5068170;28;20056;-80
2021/11/13 01:42:06;;;;;;;1.97;1.80;;;;;;;;;;5069697;28;20037;-79
2021/11/13 01:44:32;;;;;;;1.52;1.40;;;;;;;;;;5084276;28;20054;-79
2021/11/13 01:46:58;;;;;;;1.50;1.40;;;;;;;;;;5096107;28;20077;-79
2021/11/13 01:49:25;;;;;;;0.43;0.43;;;;;;;;;;5082767;28;20028;-80
2021/11/13 01:51:52;;;;;;;2.05;1.48;;;;;;;;;;5081160;28;20036;-79
2021/11/13 01:54:20;;;;;;;1.85;1.63;;;;;;;;;;5083061;28;20028;-79
2021/11/13 01:56:49;;;;;;;2.55;1.95;;;;;;;;;;5069566;28;20799;-79
2021/11/13 01:59:15;;;;;;;1.15;1.15;;;;;;;;;;5081355;28;20068;-79
2021/11/13 02:01:42;;;;;;;0.70;0.65;;;;;;;;;;5079123;28;20039;-78
2021/11/13 02:04:08;;;;;;;1.17;1.15;;;;;;;;;;5080137;28;20032;-78
2021/11/13 02:06:34;;;;;;;1.77;1.67;;;;;;;;;;5095202;28;20404;-79
2021/11/13 02:09:00;;;;;;;0.77;0.77;;;;;;;;;;5080699;28;20032;-80
2021/11/13 02:11:28;;;;;;;0.77;0.77;;;;;;;;;;5080935;28;20075;-81
2021/11/13 02:13:55;;;;;;;1.33;1.27;;;;;;;;;;5080075;28;20315;-80
2021/11/13 02:16:21;;;;;;;1.52;1.42;;;;;;;;;;5079867;28;20032;-80
2021/11/13 02:18:48;;;;;;;0.45;0.45;;;;;;;;;;5078942;28;20089;-80
2021/11/13 02:21:15;;;;;;;1.27;1.20;;;;;;;;;;5080011;28;20040;-80
2021/11/13 02:23:43;;;;;;;0.65;0.65;;;;;;;;;;5079647;28;20130;-80
2021/11/13 02:26:09;;;;;;;1.60;1.50;;;;;;;;;;5081514;28;20032;-81
2021/11/13 02:28:35;;;;;;;3.83;1.27;;;;;;;;;;5079655;28;20043;-82
2021/11/13 02:31:03;;;;;;;2.45;2.20;;;;;;;;;;5080292;28;20024;-82
2021/11/13 02:33:30;;;;;;;1.52;1.02;;;;;;;;;;5078879;28;20039;-82
2021/11/13 02:35:56;;;;;;;1.90;1.17;;;;;;;;;;5079734;28;20032;-82
2021/11/13 02:38:29;;;;;;;1.50;1.40;;;;;;;;;;5079004;28;20085;-82
2021/11/13 02:40:56;;;;;;;0.82;0.75;;;;;;;;;;5080644;28;20262;-81
2021/11/13 02:43:22;;;;;;;;;;;;;;;;;;5079889;28;20756;-79
2021/11/13 02:45:48;;;;;;;0.95;0.95;;;;;;;;;;5078387;28;20050;-80
2021/11/13 02:48:14;;;;;;;2.00;1.75;;;;;;;;;;5078401;28;20034;-80
2021/11/13 02:50:43;;;;;;;1.05;0.95;;;;;;;;;;5079957;28;20028;-80
2021/11/13 02:53:17;;;;;;;0.85;0.85;;;;;;;;;;5080133;28;20039;-79
2021/11/13 02:55:43;;;;;;;2.38;1.20;;;;;;;;;;5079940;28;20603;-79
2021/11/13 02:58:09;;;;;;;1.13;1.05;;;;;;;;;;5078609;28;20506;-79
2021/11/13 03:00:36;;;;;;;1.98;1.88;;;;;;;;;;5077447;28;20027;-79
2021/11/13 03:03:02;;;;;;;1.05;1.05;;;;;;;;;;5079465;28;20862;-79
2021/11/13 03:05:32;;;;;;;0.83;0.83;;;;;;;;;;5079355;28;20441;-81
2021/11/13 03:08:04;;;;;;;1.00;0.98;;;;;;;;;;5097697;28;20274;-84
2021/11/13 03:10:32;;;;;;;0.47;0.40;;;;;;;;;;5083813;28;20174;-85
2021/11/13 03:12:58;;;;;;;2.42;2.25;;;;;;;;;;5094178;28;20108;-81
2021/11/13 03:15:25;;;;;;;1.33;0.93;;;;;;;;;;5079667;28;20024;-82
2021/11/13 03:17:52;;;;;;;0.85;0.85;;;;;;;;;;5077626;28;20089;-80
2021/11/13 03:20:19;;;;;;;2.83;2.35;;;;;;;;;;5081285;28;20032;-80
2021/11/13 03:22:45;;;;;;;0.50;0.50;;;;;;;;;;5079111;28;20059;-80
2021/11/13 03:25:13;;;;;;;1.00;0.98;;;;;;;;;;5077216;28;20116;-80
2021/11/13 03:27:41;;;;;;;7.38;1.73;;;;;;;;;;5094368;28;20131;-80
2021/11/13 03:30:07;;;;;;;0.45;0.45;;;;;;;;;;5081166;28;20101;-80
2021/11/13 03:32:34;;;;;;;0.60;0.60;;;;;;;;;;5082519;28;20143;-80
2021/11/13 03:35:02;;;;;;;0.52;0.52;;;;;;;;;;5078612;28;20331;-80
2021/11/13 03:37:28;;;;;;;0.68;0.68;;;;;;;;;;5077766;28;20040;-80
2021/11/13 03:39:54;;;;;;;0.45;0.45;;;;;;;;;;5079810;28;20036;-80
2021/11/13 03:42:20;;;;;;;1.20;1.13;;;;;;;;;;5064542;28;20063;-80
2021/11/13 03:44:46;;;;;;;0.90;0.90;;;;;;;;;;5082948;28;20023;-80
2021/11/13 03:47:12;;;;;;;0.87;0.87;;;;;;;;;;5083879;28;20027;-79
2021/11/13 03:49:38;;;;;;;0.30;0.30;;;;;;;;;;5098515;28;20503;-80
2021/11/13 03:52:05;;;;;;;2.03;0.98;;;;;;;;;;5083746;28;20034;-82
2021/11/13 03:54:32;;;;;;;0.88;0.25;;;;;;;;;;5082024;28;20028;-82
2021/11/13 03:56:58;;;;;;;1.42;1.33;;;;;;;;;;5097417;28;20040;-81
2021/11/13 03:59:26;;;;;;;1.07;0.43;;;;;;;;;;5083988;28;20391;-79
2021/11/13 04:01:52;;;;;;;0.90;0.90;;;;;;;;;;5081502;28;20399;-80
2021/11/13 04:04:18;;;;;;;0.97;0.97;;;;;;;;;;5082103;28;20059;-80
2021/11/13 04:06:45;;;;;;;0.52;0.52;;;;;;;;;;5084411;28;20361;-82
2021/11/13 04:09:11;;;;;;;0.40;0.40;;;;;;;;;;5084766;28;20056;-81
2021/11/13 04:11:37;;;;;;;1.45;1.20;;;;;;;;;;5083684;28;20020;-82
2021/11/13 04:14:03;;;;;;;1.98;1.85;;;;;;;;;;5083391;28;20040;-81
2021/11/13 04:16:29;;;;;;;1.57;1.20;;;;;;;;;;5082824;28;20020;-81
2021/11/13 04:18:55;;;;;;;2.22;2.00;;;;;;;;;;5082352;28;20059;-82
2021/11/13 04:21:21;;;;;;;2.13;2.03;;;;;;;;;;5082591;28;20075;-83
2021/11/13 04:23:47;;;;;;;0.63;0.63;;;;;;;;;;5083499;28;20043;-82
2021/11/13 04:26:13;;;;;;;3.20;1.30;;;;;;;;;;5082574;28;20085;-81
2021/11/13 04:28:39;;;;;;;27.95;1.70;;;;;;;;;;5096390;28;20032;-81
2021/11/13 04:31:06;;;;;;;2.53;1.73;;;;;;;;;;5081108;28;20123;-81
2021/11/13 04:33:34;;;;;;;2.20;1.63;;;;;;;;;;5080961;28;20894;-80
2021/11/13 04:38:35;;;;;;;1.38;1.08;;;;;;;;;;5082653;28;20032;-80
2021/11/13 04:41:03;;;;;;;2.10;1.60;;;;;;;;;;5085744;28;20055;-82
2021/11/13 04:43:29;;;;;;;12.40;0.85;;;;;;;;;;5080347;28;20897;-82
2021/11/13 04:45:56;;;;;;;0.93;0.77;;;;;;;;;;5085064;28;20384;-81
2021/11/13 04:48:22;;;;;;;8.13;1.97;;;;;;;;;;5081263;28;20032;-83
2021/11/13 04:50:48;;;;;;;0.77;0.73;;;;;;;;;;5083777;28;20556;-83
2021/11/13 04:53:14;;;;;;;0.67;0.67;;;;;;;;;;5082806;28;20032;-83
2021/11/13 04:55:40;;;;;;;1.17;1.10;;;;;;;;;;5079046;28;20440;-82
2021/11/13 04:58:06;;;;;;;1.03;0.80;;;;;;;;;;5084068;28;20032;-82
2021/11/13 05:00:33;;;;;;;0.60;0.60;;;;;;;;;;5081040;28;20035;-82
2021/11/13 05:02:59;;;;;;;6.63;1.17;;;;;;;;;;5082563;28;20055;-80
2021/11/13 05:05:27;;;;;;;0.75;0.75;;;;;;;;;;5082109;28;20035;-80
2021/11/13 05:07:53;;;;;;;0.60;0.60;;;;;;;;;;5083833;28;20063;-80
2021/11/13 05:10:19;;;;;;;0.83;0.83;;;;;;;;;;5079228;28;20035;-81
2021/11/13 05:12:45;;;;;;;1.20;1.20;;;;;;;;;;5082534;28;20043;-81
2021/11/13 05:15:11;;;;;;;1.93;1.67;;;;;;;;;;5069364;28;20368;-81
2021/11/13 05:17:38;;;;;;;2.20;1.75;;;;;;;;;;5082717;28;20032;-80
2021/11/13 05:20:07;;;;;;;1.75;1.17;;;;;;;;;;5074778;28;20020;-81
2021/11/13 05:22:34;;;;;;;1.52;1.42;;;;;;;;;;5078845;28;20059;-81
2021/11/13 05:25:00;;;;;;;0.65;0.65;;;;;;;;;;5078177;28;20024;-80
2021/11/13 05:27:26;;;;;;;2.38;2.20;;;;;;;;;;5063798;28;20085;-80
2021/11/13 05:29:52;;;;;;;3.42;1.95;;;;;;;;;;5082605;28;20028;-80
2021/11/13 05:32:18;;;;;;;1.38;1.30;;;;;;;;;;5081339;28;20036;-81
2021/11/13 05:34:44;;;;;;;1.07;0.87;;;;;;;;;;5079609;28;20071;-81
2021/11/13 05:37:11;;;;;;;0.75;0.75;;;;;;;;;;5083339;28;20032;-81
2021/11/13 05:39:37;;;;;;;1.03;1.03;;;;;;;;;;5082177;28;20028;-80
2021/11/13 05:42:03;;;;;;;0.80;0.80;;;;;;;;;;5082389;28;20054;-78
2021/11/13 05:44:29;;;;;;;0.40;0.40;;;;;;;;;;5069441;28;20037;-78
2021/11/13 05:46:55;;;;;;;3.30;1.27;;;;;;;;;;5082317;28;20028;-79
2021/11/13 05:49:22;;;;;;;0.20;0.20;;;;;;;;;;5082819;28;20032;-81
2021/11/13 05:51:48;;;;;;;1.08;0.65;;;;;;;;;;5080924;28;20043;-80
2021/11/13 05:54:14;;;;;;;1.60;0.83;;;;;;;;;;5081121;28;20103;-81
2021/11/13 05:56:40;;;;;;;0.87;0.73;;;;;;;;;;5082259;28;20687;-80
2021/11/13 05:59:06;;;;;;;0.23;0.23;;;;;;;;;;5082526;28;20046;-80
2021/11/13 06:01:32;;;;;;;0.22;0.22;;;;;;;;;;5082158;28;20306;-80
2021/11/13 06:03:59;;;;;;;0.63;0.63;;;;;;;;;;5083131;28;20639;-80
2021/11/13 06:06:25;;;;;;;0.63;0.63;;;;;;;;;;5078501;28;20027;-80
2021/11/13 06:08:51;;;;;;;0.73;0.73;;;;;;;;;;5081942;28;20032;-80
2021/11/13 06:11:17;;;;;;;0.73;0.73;;;;;;;;;;5081069;28;20541;-80
2021/11/13 06:13:43;;;;;;;0.77;0.77;;;;;;;;;;5077301;28;20127;-80
2021/11/13 06:16:09;;;;;;;0.20;0.20;;;;;;;;;;5079594;28;20034;-81
2021/11/13 06:18:38;;;;;;;1.13;1.02;;;;;;;;;;5082032;28;20028;-82
2021/11/13 06:21:06;;;;;;;0.80;0.80;;;;;;;;;;5076184;28;20097;-82
2021/11/13 06:23:35;;;;;;;0.40;0.40;;;;;;;;;;5082278;28;20051;-81
2021/11/13 06:26:01;;;;;;;0.68;0.68;;;;;;;;;;5079406;28;20379;-82
2021/11/13 06:28:27;;;;;;;1.10;0.77;;;;;;;;;;5080278;28;20034;-82
2021/11/13 06:30:53;;;;;;;0.30;0.30;;;;;;;;;;5081202;28;20039;-82
2021/11/13 06:33:20;;;;;;;1.20;1.10;;;;;;;;;;5081338;28;20023;-82
2021/11/13 06:35:46;;;;;;;0.50;0.50;;;;;;;;;;5080798;28;20103;-83
2021/11/13 06:38:12;;;;;;;0.67;0.67;;;;;;;;;;5073608;28;20113;-82
2021/11/13 06:40:38;;;;;;;6.80;1.37;;;;;;;;;;5078456;28;20032;-83
2021/11/13 06:43:04;;;;;;;0.67;0.67;;;;;;;;;;5077292;28;20043;-83
2021/11/13 06:45:30;;;;;;;0.47;0.47;;;;;;;;;;5080635;28;20031;-83
2021/11/13 06:47:56;;;;;;;0.90;0.90;;;;;;;;;;5086906;28;20068;-82
2021/11/13 06:50:22;;;;;;;0.90;0.90;;;;;;;;;;5080328;28;20119;-83
2021/11/13 06:52:49;;;;;;;1.17;0.67;;;;;;;;;;5077229;28;20807;-83
2021/11/13 06:55:15;;;;;;;1.02;0.75;;;;;;;;;;5077243;28;20288;-82
2021/11/13 06:57:42;;;;;;;0.45;0.45;;;;;;;;;;5093371;28;20111;-82
2021/11/13 07:00:12;;;;;;;0.60;0.60;;;;;;;;;;5080006;28;20145;-84
2021/11/13 07:02:38;;;;;;;0.65;0.57;;;;;;;;;;5080314;28;20046;-83
2021/11/13 07:05:05;;;;;;;2.00;1.25;;;;;;;;;;5080903;28;20032;-83
2021/11/13 07:07:33;;;;;;;;;;;;;;;;;;5080858;28;20028;-82
2021/11/13 07:10:00;;;;;;;0.55;0.55;;;;;;;;;;5079068;28;19912;-82
2021/11/13 07:12:26;;;;;;;0.63;0.63;;;;;;;;;;5079387;28;20062;-82
2021/11/13 07:14:52;;;;;;;0.40;0.40;;;;;;;;;;5078801;28;20039;-82
2021/11/13 07:17:18;;;;;;;1.00;1.00;;;;;;;;;;5079143;28;20032;-81
2021/11/13 07:19:44;;;;;;;0.80;0.80;;;;;;;;;;5074637;28;20035;-81
2021/11/13 07:22:10;;;;;;;1.80;0.90;;;;;;;;;;5075603;28;20047;-81
2021/11/13 07:24:37;;;;;;;1.88;0.43;;;;;;;;;;5075797;28;20031;-80
2021/11/13 07:27:03;;;;;;;1.20;1.10;;;;;;;;;;5075262;28;20036;-80
2021/11/13 07:29:29;;;;;;;0.95;0.82;;;;;;;;;;5077550;28;20167;-80
2021/11/13 07:31:55;;;;;;;1.17;1.07;;;;;;;;;;5075480;28;20073;-81
2021/11/13 07:34:21;;;;;;;0.47;0.47;;;;;;;;;;5076170;28;20032;-80
2021/11/13 07:36:48;;;;;;;2.53;2.30;;;;;;;;;;5077567;28;20063;-82
2021/11/13 07:39:14;;;;;;;1.02;1.02;;;;;;;;;;5076927;28;20097;-81
2021/11/13 07:41:40;;;;;;;1.10;0.57;;;;;;;;;;5073747;28;20032;-81
2021/11/13 07:44:06;;;;;;;1.80;1.20;;;;;;;;;;5077391;28;20035;-81
2021/11/13 07:46:34;;;;;;;0.28;0.28;;;;;;;;;;5075048;28;20282;-81
2021/11/13 07:49:00;;;;;;;0.85;0.60;;;;;;;;;;5074901;28;20070;-80
2021/11/13 07:51:26;;;;;;;0.55;0.55;;;;;;;;;;5091350;28;20085;-82
2021/11/13 07:53:52;;;;;;;1.80;1.27;;;;;;;;;;5076963;28;20706;-81
2021/11/13 07:56:18;;;;;;;5.60;0.60;;;;;;;;;;5078942;28;20807;-82
2021/11/13 07:58:44;;;;;;;3.63;2.13;;;;;;;;;;5092330;28;20028;-82
2021/11/13 08:01:10;;;;;;;2.63;1.13;;;;;;;;;;5075664;28;20505;-82
2021/11/13 08:03:36;;;;;;;1.17;0.98;;;;;;;;;;5076087;28;20540;-82
2021/11/13 08:06:02;;;;;;;0.70;0.70;;;;;;;;;;5090675;28;20516;-82
2021/11/13 08:08:29;;;;;;;0.40;0.40;;;;;;;;;;5091679;28;20035;-82
2021/11/13 08:10:56;;;;;;;0.30;0.30;;;;;;;;;;5074565;28;20029;-81
2021/11/13 08:13:22;;;;;;;0.80;0.80;;;;;;;;;;5071745;28;20028;-82
2021/11/13 08:15:49;;;;;;;0.67;0.67;;;;;;;;;;5073136;28;21040;-81
2021/11/13 08:18:16;;;;;;;0.47;0.47;;;;;;;;;;5077321;28;20063;-81
2021/11/13 08:20:42;;;;;;;0.28;0.28;;;;;;;;;;5075539;28;20028;-80
2021/11/13 08:23:10;;;;;;;0.93;0.93;;;;;;;;;;5079278;28;20414;-81
2021/11/13 08:25:36;;;;;;;1.17;1.13;;;;;;;;;;5079938;28;20491;-81
2021/11/13 08:28:03;;;;;;;1.50;1.40;;;;;;;;;;5077673;28;20039;-81
2021/11/13 08:30:30;;;;;;;1.23;1.13;;;;;;;;;;5083055;28;20031;-81
2021/11/13 08:32:57;;;;;;;0.93;0.93;;;;;;;;;;5078452;28;20437;-80
2021/11/13 08:35:24;;;;;;;1.30;0.55;;;;;;;;;;5083369;28;20487;-82
2021/11/13 08:37:50;;;;;;;1.17;0.52;;;;;;;;;;5080392;28;20115;-81
2021/11/13 08:40:16;;;;;;;0.13;0.13;;;;;;;;;;5076524;28;20085;-81
2021/11/13 08:42:42;;;;;;;0.57;0.57;;;;;;;;;;5073824;28;20036;-81
2021/11/13 08:45:09;;;;;;;3.53;1.07;;;;;;;;;;5078373;28;20031;-82
2021/11/13 08:47:36;;;;;;;2.47;1.63;;;;;;;;;;5070135;28;20038;-82
2021/11/13 08:50:03;;;;;;;0.88;0.82;;;;;;;;;;5072284;28;20029;-83
2021/11/13 08:52:29;;;;;;;0.40;0.40;;;;;;;;;;5079214;28;20028;-81
2021/11/13 08:54:55;;;;;;;3.65;1.02;;;;;;;;;;5076571;28;20104;-82
2021/11/13 08:57:21;;;;;;;0.73;0.73;;;;;;;;;;5074146;28;20710;-81
2021/11/13 08:59:47;;;;;;;0.93;0.93;;;;;;;;;;5080638;28;20104;-81
2021/11/13 09:02:16;;;;;;;1.20;1.17;;;;;;;;;;5075071;28;20559;-81
2021/11/13 09:04:44;;;;;;;0.40;0.40;;;;;;;;;;5072775;28;20304;-81
2021/11/13 09:07:10;;;;;;;0.50;0.50;;;;;;;;;;5073570;28;20051;-81
2021/11/13 09:09:37;;;;;;;0.47;0.47;;;;;;;;;;5078508;28;20032;-81
2021/11/13 09:12:09;;;;;;;1.33;0.63;;;;;;;;;;5078431;28;20039;-81
2021/11/13 09:14:35;;;;;;;0.90;0.85;;;;;;;;;;5075073;28;20025;-79
2021/11/13 09:17:02;;;;;;;0.20;0.20;;;;;;;;;;5076317;28;20117;-79
2021/11/13 09:19:28;;;;;;;0.98;0.85;;;;;;;;;;5078395;28;20020;-81
2021/11/13 09:21:54;;;;;;;0.10;0.10;;;;;;;;;;5077128;28;20040;-83
2021/11/13 09:24:21;;;;;;;1.45;1.20;;;;;;;;;;5092012;27;20686;-80
2021/11/13 09:26:48;;;;;;;0.65;0.65;;;;;;;;;;5080896;28;20052;-82
2021/11/13 09:29:14;;;;;;;2.10;0.85;;;;;;;;;;5081525;28;20032;-82
2021/11/13 09:31:43;;;;;;;0.53;0.47;;;;;;;;;;5080152;28;20031;-81
2021/11/13 09:34:10;;;;;;;0.45;0.45;;;;;;;;;;5080091;28;20020;-81
2021/11/13 09:36:36;;;;;;;0.35;0.35;;;;;;;;;;5080180;28;20028;-79
2021/11/13 09:39:03;;;;;;;0.40;0.40;;;;;;;;;;5079676;28;20705;-82
2021/11/13 09:41:29;;;;;;;0.68;0.68;;;;;;;;;;5085269;28;20028;-80
2021/11/13 09:43:56;;;;;;;2.07;1.43;;;;;;;;;;5078437;28;20039;-81
2021/11/13 09:46:22;;;;;;;2.13;1.55;;;;;;;;;;5078096;28;20812;-80
2021/11/13 09:48:51;;;;;;;0.73;0.73;;;;;;;;;;5078511;28;20036;-81
2021/11/13 09:51:19;;;;;;;0.73;0.73;;;;;;;;;;5077913;28;20101;-81
2021/11/13 09:53:45;;;;;;;1.60;1.50;;;;;;;;;;5068896;28;20032;-81
2021/11/13 09:56:11;;;;;;;0.30;0.30;;;;;;;;;;5065744;28;20506;-81
2021/11/13 09:58:37;;;;;;;0.50;0.50;;;;;;;;;;5074802;28;20074;-81
2021/11/13 10:01:04;;;;;;;0.68;0.65;;;;;;;;;;5076766;28;20613;-82
2021/11/13 10:03:30;;;;;;;0.55;0.55;;;;;;;;;;5078583;28;20043;-82
2021/11/13 10:06:01;;;;;;;0.50;0.50;;;;;;;;;;5074831;28;20063;-81
2021/11/13 10:08:27;;;;;;;0.43;0.43;;;;;;;;;;5079578;28;20290;-80
2021/11/13 10:11:00;;;;;;;7.50;5.05;;;;;;;;;;5070043;28;20039;-81
2021/11/13 10:13:33;;;;;;;1.85;1.75;;;;;;;;;;5085173;28;20094;-82
2021/11/13 10:16:00;;;;;;;0.50;0.50;;;;;;;;;;5070476;28;20086;-82
2021/11/13 10:18:31;;;;;;;0.73;0.38;;;;;;;;;;5095937;28;20677;-83
2021/11/13 10:20:57;;;;;;;2.28;0.90;;;;;;;;;;5096933;28;20071;-84
2021/11/13 10:23:26;;;;;;;1.77;1.67;;;;;;;;;;5095941;27;20054;-83
2021/11/13 10:25:59;;;;;;;0.80;0.80;;;;;;;;;;5089354;28;20039;-84
2021/11/13 10:28:25;;;;;;;6.45;2.53;;;;;;;;;;5074937;28;20032;-83
2021/11/13 10:31:05;;;;;;;1.33;1.30;;;;;;;;;;5092758;28;20051;-81
2021/11/13 10:33:31;;;;;;;0.68;0.68;;;;;;;;;;5090232;27;20108;-83
2021/11/13 10:35:57;;;;;;;2.78;1.55;;;;;;;;;;5081988;28;20506;-83
2021/11/13 10:38:23;;;;;;;1.17;1.17;;;;;;;;;;5080044;28;20051;-83
2021/11/13 10:40:49;;;;;;;4.67;2.67;;;;;;;;;;5082227;28;20043;-82
2021/11/13 10:43:16;;;;;;;0.40;0.40;;;;;;;;;;5076440;28;20036;-83
2021/11/13 10:45:45;;;;;;;0.10;0.10;;;;;;;;;;5074590;28;20036;-81
2021/11/13 10:48:21;;;;;;;0.60;0.60;;;;;;;;;;5075287;28;20031;-80
2021/11/13 10:50:48;;;;;;;0.43;0.43;;;;;;;;;;5080449;28;20051;-80
2021/11/13 10:53:14;;;;;;;2.10;1.90;;;;;;;;;;5076141;28;20060;-80
2021/11/13 10:55:45;;;;;;;0.32;0.32;;;;;;;;;;5069254;28;20070;-80
2021/11/13 10:58:44;;;;;;;2.20;1.17;;;;;;;;;;5085491;28;20097;-82
2021/11/13 11:01:29;;;;;;;0.30;0.30;;;;;;;;;;5055014;28;20114;-82
2021/11/13 11:03:59;;;;;;;0.68;0.68;;;;;;;;;;5036656;28;20132;-82
2021/11/13 11:06:26;;;;;;;0.32;0.32;;;;;;;;;;5038614;28;20024;-81
2021/11/13 11:08:52;;;;;;;0.45;0.45;;;;;;;;;;5055107;28;20882;-82
2021/11/13 11:11:27;;;;;;;0.28;0.28;;;;;;;;;;5054543;28;20088;-82
2021/11/13 11:13:54;;;;;;;0.28;0.28;;;;;;;;;;5035046;28;20097;-82
2021/11/13 11:16:24;;;;;;;3.45;3.10;;;;;;;;;;5035798;28;20035;-82
2021/11/13 11:18:56;;;;;;;1.17;1.05;;;;;;;;;;5055249;28;20107;-82
2021/11/13 11:21:41;;;;;;;0.30;0.30;;;;;;;;;;5035568;28;20045;-82
2021/11/13 11:24:08;;;;;;;0.13;0.13;;;;;;;;;;5032086;28;20140;-81
2021/11/13 11:26:34;;;;;;;;;;;;;;;;;;5049168;28;20527;-82
2021/11/13 11:29:00;;;;;;;0.60;0.60;;;;;;;;;;5041200;28;19912;-81
2021/11/13 11:31:38;;;;;;;0.67;0.67;;;;;;;;;;5052810;28;20087;-81
2021/11/13 11:34:04;;;;;;;0.45;0.45;;;;;;;;;;5051291;28;20389;-82
2021/11/13 11:36:34;;;;;;;2.07;1.00;;;;;;;;;;5050534;28;20054;-82
2021/11/13 11:39:01;;;;;;;0.93;0.93;;;;;;;;;;5077591;28;20051;-82
2021/11/13 11:41:27;;;;;;;3.92;1.13;;;;;;;;;;5079326;28;20111;-79
2021/11/13 11:43:54;;;;;;;0.83;0.50;;;;;;;;;;5075101;28;20785;-81
2021/11/13 11:46:20;;;;;;;0.25;0.25;;;;;;;;;;5080031;28;20028;-81
2021/11/13 11:48:46;;;;;;;1.20;1.10;;;;;;;;;;5081011;28;20111;-83
2021/11/13 11:51:13;;;;;;;0.53;0.53;;;;;;;;;;5080866;28;20047;-82
2021/11/13 11:53:39;;;;;;;0.75;0.65;;;;;;;;;;5080402;28;20517;-81
2021/11/13 11:56:05;;;;;;;0.40;0.40;;;;;;;;;;5079861;28;20078;-83
2021/11/13 11:58:31;;;;;;;0.70;0.70;;;;;;;;;;5068799;28;20040;-85
2021/11/13 12:00:59;;;;;;;0.43;0.43;;;;;;;;;;5069521;28;20317;-84
2021/11/13 12:03:35;;;;;;;1.25;0.60;;;;;;;;;;5074224;28;20047;-84
2021/11/13 12:06:01;;;;;;;0.65;0.65;;;;;;;;;;5082267;28;20115;-82
2021/11/13 12:08:28;;;;;;;1.48;1.27;;;;;;;;;;5083668;28;20050;-85
2021/11/13 12:11:14;;;;;;;0.45;0.45;;;;;;;;;;5080712;28;20033;-83
2021/11/13 12:13:40;;;;;;;0.57;0.57;;;;;;;;;;5081353;28;20043;-83
2021/11/13 12:16:06;;;;;;;2.00;0.93;;;;;;;;;;5083162;28;20032;-82
2021/11/13 12:18:35;;;;;;;0.30;0.30;;;;;;;;;;5081442;28;20042;-82
2021/11/13 12:21:04;;;;;;;0.82;0.82;;;;;;;;;;5079284;28;20031;-82
2021/11/13 12:23:35;;;;;;;2.10;1.00;;;;;;;;;;5079364;28;20047;-83
2021/11/13 12:26:05;;;;;;;1.45;1.35;;;;;;;;;;5078483;28;20895;-82
2021/11/13 12:28:31;;;;;;;0.95;0.93;;;;;;;;;;5080380;28;20499;-82
2021/11/13 12:30:57;;;;;;;0.28;0.28;;;;;;;;;;5078619;28;20123;-82
2021/11/13 12:33:29;;;;;;;0.63;0.63;;;;;;;;;;5079926;28;20059;-82
2021/11/13 12:35:59;;;;;;;0.80;0.80;;;;;;;;;;5076751;28;20123;-84
2021/11/13 12:38:31;;;;;;;0.30;0.30;;;;;;;;;;5080545;28;20036;-82
2021/11/13 12:41:11;;;;;;;0.80;0.80;;;;;;;;;;5078167;28;20032;-82
2021/11/13 12:43:56;;;;;;;2.83;1.90;;;;;;;;;;5076650;28;20085;-82
2021/11/13 12:46:34;;;;;;;0.77;0.77;;;;;;;;;;5080733;28;20059;-83
2021/11/13 12:51:53;;;;;;;0.38;0.38;;;;;;;;;;5082273;28;20448;-83
2021/11/13 12:54:22;;;;;;;1.65;1.17;;;;;;;;;;5080533;28;20530;-83
2021/11/13 12:57:11;;;;;;;0.73;0.60;;;;;;;;;;5066385;28;20082;-82
2021/11/13 12:59:58;;;;;;;2.20;1.25;;;;;;;;;;5078249;28;20040;-82
2021/11/13 13:02:25;;;;;;;1.42;1.42;;;;;;;;;;5084396;28;20051;-82
2021/11/13 13:04:51;;;;;;;0.93;0.75;;;;;;;;;;5082838;28;20047;-82
2021/11/13 13:07:18;;;;;;;0.45;0.45;;;;;;;;;;5084139;28;20779;-83
2021/11/13 13:09:44;;;;;;;;;;;;;;;;;;5081196;28;20024;-82
2021/11/13 13:12:14;;;;;;;1.35;0.90;;;;;;;;;;5082138;28;20015;-83
2021/11/13 13:14:40;;;;;;;1.35;0.93;;;;;;;;;;5084283;28;20419;-84
2021/11/13 13:17:06;;;;;;;0.30;0.30;;;;;;;;;;5085338;28;20500;-83
2021/11/13 13:19:33;;;;;;;0.20;0.20;;;;;;;;;;5080550;28;20050;-84
2021/11/13 13:22:00;;;;;;;4.50;1.40;;;;;;;;;;5083507;28;20064;-84
2021/11/13 13:24:26;;;;;;;0.15;0.15;;;;;;;;;;5096187;28;20047;-85
2021/11/13 13:27:00;;;;;;;0.43;0.43;;;;;;;;;;5083125;28;20028;-84
2021/11/13 13:29:26;;;;;;;0.47;0.47;;;;;;;;;;5097335;28;20259;-85
2021/11/13 13:32:03;;;;;;;0.40;0.40;;;;;;;;;;5079665;28;20109;-84
2021/11/13 13:34:30;;;;;;;3.28;1.58;;;;;;;;;;5082159;28;20028;-84
2021/11/13 13:37:18;;;;;;;8.32;2.63;;;;;;;;;;5082919;28;20039;-83
2021/11/13 13:39:45;;;;;;;0.28;0.28;;;;;;;;;;5077044;28;20434;-86
2021/11/13 13:42:11;;;;;;;2.67;1.65;;;;;;;;;;5089636;27;20036;-86
2021/11/13 13:44:38;;;;;;;0.60;0.55;;;;;;;;;;5073447;28;20029;-85
2021/11/13 13:47:04;;;;;;;0.47;0.47;;;;;;;;;;5081672;28;20038;-85
2021/11/13 13:49:30;;;;;;;0.73;0.73;;;;;;;;;;5079971;28;20024;-85
2021/11/13 13:51:57;;;;;;;1.33;1.00;;;;;;;;;;5077153;28;20115;-85
2021/11/13 13:54:24;;;;;;;2.67;0.82;;;;;;;;;;5076785;28;20098;-85
2021/11/13 13:56:51;;;;;;;0.52;0.52;;;;;;;;;;5087511;28;20021;-86
2021/11/13 13:59:20;;;;;;;0.50;0.50;;;;;;;;;;5073426;28;20037;-84
2021/11/13 14:02:15;;;;;;;0.38;0.38;;;;;;;;;;5077320;28;20419;-85
2021/11/13 14:04:43;;;;;;;0.77;0.77;;;;;;;;;;5074899;28;20036;-85
2021/11/13 14:07:15;;;;;;;0.40;0.40;;;;;;;;;;5076644;28;20044;-85
2021/11/13 14:09:41;;;;;;;0.88;0.88;;;;;;;;;;5082441;28;20055;-84
2021/11/13 14:12:07;;;;;;;1.05;0.98;;;;;;;;;;5087695;28;20032;-84
2021/11/13 14:14:34;;;;;;;1.80;1.70;;;;;;;;;;5071674;28;20111;-84
2021/11/13 14:17:00;;;;;;;1.42;0.80;;;;;;;;;;5092955;28;20307;-84
2021/11/13 14:19:26;;;;;;;0.82;0.52;;;;;;;;;;5090069;27;20048;-84
2021/11/13 14:21:52;;;;;;;1.53;1.43;;;;;;;;;;5072267;28;21821;-84
2021/11/13 14:24:20;;;;;;;0.28;0.28;;;;;;;;;;5083185;28;20028;-84
2021/11/13 14:26:47;;;;;;;3.05;2.13;;;;;;;;;;5094270;28;20024;-85
2021/11/13 14:29:13;;;;;;;1.83;1.33;;;;;;;;;;5089919;28;20118;-84
2021/11/13 14:31:40;;;;;;;2.07;1.13;;;;;;;;;;5077469;28;20383;-84
2021/11/13 14:34:08;;;;;;;;;;;;;;;;;;5076667;28;20028;-84
2021/11/13 14:36:42;;;;;;;1.30;1.20;;;;;;;;;;5073139;28;20450;-84
2021/11/13 14:39:09;;;;;;;0.50;0.50;;;;;;;;;;5076351;28;20043;-83
2021/11/13 14:41:35;;;;;;;0.93;0.52;;;;;;;;;;5084138;28;20020;-85
2021/11/13 14:44:11;;;;;;;0.30;0.30;;;;;;;;;;5087788;28;20036;-85
2021/11/13 14:46:42;;;;;;;0.45;0.45;;;;;;;;;;5082528;28;20024;-83
2021/11/13 14:49:08;;;;;;;1.50;1.25;;;;;;;;;;5081079;28;20116;-84
2021/11/13 14:51:40;;;;;;;2.33;1.13;;;;;;;;;;5075381;28;20035;-84
2021/11/13 14:54:07;;;;;;;0.40;0.40;;;;;;;;;;5081088;28;20085;-84